Time;durP1;ratioP1;P1;durP2;ratioP2;P2;SDS_P1;SDS_P2;PMS_P1;PMS_P2;Temp;Humidity;BMP_temperature;BMP_pressure;BME280_temperature;BME280_humidity;BME280_pressure;Samples;Min_cycle;Max_cycle;Signal;HPM_P1;HPM_P2
2023/02/05 00:01:55;;;;;;;24.17;11.68;;;;;;;8.08;100.00;103366.31;5049513;28;20025;-67
2023/02/05 00:04:20;;;;;;;20.17;10.48;;;;;;;8.03;100.00;103358.16;5050784;28;20512;-69
2023/02/05 00:06:45;;;;;;;22.58;11.13;;;;;;;8.07;100.00;103356.63;5052301;28;20557;-68
2023/02/05 00:09:11;;;;;;;26.23;10.77;;;;;;;7.99;100.00;103358.75;5052799;28;20112;-70
2023/02/05 00:11:36;;;;;;;17.08;9.75;;;;;;;7.92;100.00;103344.31;5052172;28;20029;-69
2023/02/05 00:14:02;;;;;;;19.85;10.77;;;;;;;7.93;100.00;103345.22;5050707;28;20025;-69
2023/02/05 00:16:27;;;;;;;18.17;10.02;;;;;;;7.94;100.00;103354.91;5051477;28;20075;-69
2023/02/05 00:18:53;;;;;;;19.17;9.85;;;;;;;7.94;100.00;103342.69;5050726;28;20119;-69
2023/02/05 00:21:19;;;;;;;18.13;8.60;;;;;;;7.94;100.00;103344.41;5051356;28;20052;-70
2023/02/05 00:23:46;;;;;;;17.63;9.15;;;;;;;7.98;100.00;103359.56;5051558;28;20037;-69
2023/02/05 00:26:13;;;;;;;26.63;10.02;;;;;;;7.87;100.00;103360.53;5052133;28;20115;-70
2023/02/05 00:28:39;;;;;;;18.27;9.35;;;;;;;7.93;100.00;103356.63;5050423;28;20027;-69
2023/02/05 00:31:18;;;;;;;19.88;9.30;;;;;;;7.96;100.00;103350.66;5050757;28;20055;-70
2023/02/05 00:33:44;;;;;;;21.65;9.02;;;;;;;7.90;100.00;103350.25;5049909;28;20021;-71
2023/02/05 00:36:11;;;;;;;14.45;8.45;;;;;;;7.85;100.00;103351.66;5050201;28;20039;-70
2023/02/05 00:38:36;;;;;;;20.10;8.90;;;;;;;7.80;100.00;103350.44;5051193;28;20479;-69
2023/02/05 00:41:02;;;;;;;18.67;8.77;;;;;;;7.82;100.00;103367.19;5050827;28;20033;-68
2023/02/05 00:43:27;;;;;;;19.75;7.68;;;;;;;7.87;100.00;103360.53;5048493;28;20061;-68
2023/02/05 00:45:53;;;;;;;15.60;7.75;;;;;;;7.85;100.00;103356.91;5050259;28;20029;-70
2023/02/05 00:48:18;;;;;;;15.23;8.20;;;;;;;7.81;100.00;103361.00;5050673;28;20024;-69
2023/02/05 00:50:46;;;;;;;17.50;8.07;;;;;;;7.91;100.00;103370.44;5050663;28;20025;-69
2023/02/05 00:53:11;;;;;;;17.23;8.05;;;;;;;7.92;100.00;103370.53;5051495;28;20023;-70
2023/02/05 00:55:36;;;;;;;13.93;7.15;;;;;;;7.89;100.00;103369.41;5052260;28;20376;-69
2023/02/05 00:58:02;;;;;;;14.38;6.57;;;;;;;7.84;100.00;103365.56;5051342;28;20419;-69
2023/02/05 01:00:27;;;;;;;13.98;5.95;;;;;;;7.86;100.00;103369.22;5050150;28;20393;-68
2023/02/05 01:02:53;;;;;;;11.38;6.05;;;;;;;7.86;100.00;103359.63;5050632;28;20374;-69
2023/02/05 01:05:19;;;;;;;14.65;5.38;;;;;;;7.82;100.00;103365.47;5049882;28;20037;-68
2023/02/05 01:07:45;;;;;;;10.20;5.53;;;;;;;7.86;100.00;103358.72;5046823;28;20052;-69
2023/02/05 01:10:10;;;;;;;10.93;5.15;;;;;;;7.87;100.00;103365.78;5049347;28;20032;-69
2023/02/05 01:12:35;;;;;;;10.30;4.20;;;;;;;7.82;100.00;103364.56;5051425;28;20035;-69
2023/02/05 01:15:03;;;;;;;6.65;4.15;;;;;;;7.84;100.00;103356.00;5055482;28;20059;-69
2023/02/05 01:17:28;;;;;;;7.78;3.35;;;;;;;7.84;100.00;103355.06;5055371;28;20611;-68
2023/02/05 01:19:53;;;;;;;4.65;2.72;;;;;;;7.75;100.00;103350.13;5054695;28;20104;-68
2023/02/05 01:22:19;;;;;;;6.05;2.67;;;;;;;7.84;100.00;103355.06;5054036;28;20381;-70
2023/02/05 01:24:45;;;;;;;7.88;2.47;;;;;;;7.87;100.00;103358.81;5055807;28;20044;-69
2023/02/05 01:27:10;;;;;;;5.57;2.30;;;;;;;7.90;100.00;103366.88;5054542;28;20032;-69
2023/02/05 01:29:35;;;;;;;10.25;2.70;;;;;;;7.80;100.00;103369.69;5055002;28;20453;-70
2023/02/05 01:32:01;;;;;;;3.42;1.90;;;;;;;7.84;100.00;103376.97;5052700;28;20035;-69
2023/02/05 01:34:26;;;;;;;5.20;2.40;;;;;;;7.79;100.00;103378.38;5054239;28;20020;-69
2023/02/05 01:36:51;;;;;;;6.90;2.13;;;;;;;7.89;100.00;103370.31;5054498;28;20068;-70
2023/02/05 01:39:16;;;;;;;5.60;2.25;;;;;;;7.82;100.00;103380.28;5054081;28;20043;-69
2023/02/05 01:41:44;;;;;;;6.70;2.67;;;;;;;7.89;100.00;103374.66;5053664;28;20029;-68
2023/02/05 01:44:09;;;;;;;4.20;2.22;;;;;;;7.76;100.00;103368.56;5053007;28;20055;-69
2023/02/05 01:46:37;;;;;;;6.07;1.80;;;;;;;7.78;100.00;103362.53;5054729;28;20036;-69
2023/02/05 01:49:04;;;;;;;6.95;1.80;;;;;;;7.76;100.00;103358.09;5054326;28;20036;-70
2023/02/05 01:51:32;;;;;;;8.90;1.80;;;;;;;7.81;100.00;103349.63;5054710;28;20032;-69
2023/02/05 01:53:58;;;;;;;7.00;1.70;;;;;;;7.83;100.00;103334.94;5054474;28;20025;-69
2023/02/05 01:56:30;;;;;;;4.32;1.75;;;;;;;7.80;100.00;103330.38;5054143;28;20029;-70
2023/02/05 01:58:59;;;;;;;5.22;1.80;;;;;;;7.76;100.00;103337.13;5052975;28;20033;-68
2023/02/05 02:01:26;;;;;;;4.40;1.10;;;;;;;7.67;100.00;103352.22;5054607;28;20028;-68
2023/02/05 02:03:54;;;;;;;5.93;1.70;;;;;;;7.71;100.00;103349.00;5055254;28;20029;-69
2023/02/05 02:06:19;;;;;;;6.03;1.88;;;;;;;7.81;100.00;103334.81;5054645;28;20048;-69
2023/02/05 02:08:45;;;;;;;3.28;1.30;;;;;;;7.85;100.00;103331.56;5052476;28;20045;-69
2023/02/05 02:11:15;;;;;;;6.25;1.30;;;;;;;7.67;100.00;103331.25;5055238;28;20032;-68
2023/02/05 02:13:44;;;;;;;5.45;2.38;;;;;;;7.71;100.00;103322.78;5053082;28;20104;-69
2023/02/05 02:16:10;;;;;;;4.60;1.35;;;;;;;7.71;100.00;103320.16;5052303;28;20048;-69
2023/02/05 02:18:38;;;;;;;8.68;1.60;;;;;;;7.73;100.00;103317.66;5054725;28;20459;-68
2023/02/05 02:21:24;;;;;;;8.20;1.52;;;;;;;7.66;100.00;103307.56;5053654;28;20117;-69
2023/02/05 02:24:14;;;;;;;2.97;1.10;;;;;;;7.68;100.00;103301.63;5054774;28;20032;-68
2023/02/05 02:26:58;;;;;;;4.25;1.55;;;;;;;7.73;100.00;103294.06;5052512;28;20031;-69
2023/02/05 02:29:50;;;;;;;3.50;1.65;;;;;;;7.65;100.00;103285.69;5054577;28;20512;-69
2023/02/05 02:32:22;;;;;;;9.13;1.65;;;;;;;7.77;100.00;103277.72;5052022;28;20047;-68
2023/02/05 02:34:55;;;;;;;7.90;1.70;;;;;;;7.72;100.00;103284.41;5053379;28;20021;-68
2023/02/05 02:37:48;;;;;;;4.78;1.38;;;;;;;7.73;100.00;103283.56;5048690;28;20298;-69
2023/02/05 02:40:24;;;;;;;14.88;2.15;;;;;;;7.55;100.00;103284.13;5053127;28;20033;-68
2023/02/05 02:42:58;;;;;;;8.73;1.83;;;;;;;7.64;100.00;103276.00;5053823;28;20024;-68
2023/02/05 02:45:28;;;;;;;5.00;1.58;;;;;;;7.63;100.00;103274.19;5051782;28;20029;-69
2023/02/05 02:47:57;;;;;;;6.40;2.53;;;;;;;7.68;100.00;103275.41;5050182;28;20029;-69
2023/02/05 02:50:31;;;;;;;4.80;1.65;;;;;;;7.72;100.00;103285.28;5053699;28;20032;-68
2023/02/05 02:53:01;;;;;;;11.63;1.88;;;;;;;7.66;100.00;103292.72;5052347;28;20033;-69
2023/02/05 02:55:32;;;;;;;7.63;2.38;;;;;;;7.68;100.00;103301.63;5053079;28;20385;-70
2023/02/05 02:58:00;;;;;;;6.03;1.90;;;;;;;7.60;100.00;103289.72;5053147;28;20381;-68
2023/02/05 03:00:28;;;;;;;8.15;2.05;;;;;;;7.60;100.00;103289.72;5053328;28;20094;-70
2023/02/05 03:03:01;;;;;;;9.18;2.63;;;;;;;7.59;100.00;103286.16;5053525;28;20522;-70
2023/02/05 03:05:28;;;;;;;9.83;2.53;;;;;;;7.63;100.00;103289.00;5051646;28;20028;-69
2023/02/05 03:07:59;;;;;;;12.43;2.30;;;;;;;7.58;100.00;103294.84;5051793;28;20041;-70
2023/02/05 03:10:30;;;;;;;13.85;2.67;;;;;;;7.54;100.00;103303.31;5053335;28;20456;-69
2023/02/05 03:12:55;;;;;;;7.30;2.58;;;;;;;7.60;100.00;103305.44;5049222;28;20060;-70
2023/02/05 03:15:21;;;;;;;11.23;3.00;;;;;;;7.57;100.00;103310.47;5050224;28;20025;-69
2023/02/05 03:17:46;;;;;;;10.77;3.47;;;;;;;7.51;100.00;103308.31;5051499;28;20024;-69
2023/02/05 03:20:24;;;;;;;7.00;2.85;;;;;;;7.47;100.00;103308.91;5052542;28;20032;-69
2023/02/05 03:22:49;;;;;;;9.00;3.65;;;;;;;7.38;100.00;103311.81;5051909;28;20449;-68
2023/02/05 03:25:19;;;;;;;11.30;3.63;;;;;;;7.39;100.00;103304.84;5053527;28;20059;-69
2023/02/05 03:27:45;;;;;;;12.48;4.97;;;;;;;7.26;100.00;103305.72;5050915;28;20629;-68
2023/02/05 03:30:10;;;;;;;13.38;4.53;;;;;;;7.20;100.00;103311.44;5052790;28;20049;-71
2023/02/05 03:32:39;;;;;;;11.43;5.18;;;;;;;7.18;100.00;103315.66;5050486;28;20369;-69
2023/02/05 03:35:26;;;;;;;14.82;4.72;;;;;;;7.17;100.00;103312.94;5053029;28;20032;-69
2023/02/05 03:38:09;;;;;;;13.60;5.65;;;;;;;7.15;100.00;103306.66;5048712;28;20037;-70
2023/02/05 03:40:50;;;;;;;14.27;5.70;;;;;;;7.08;100.00;103301.00;5045658;28;20045;-70
2023/02/05 03:43:24;;;;;;;14.57;5.72;;;;;;;6.97;100.00;103303.66;5050507;28;20480;-70
2023/02/05 03:46:04;;;;;;;10.82;5.60;;;;;;;7.02;100.00;103300.56;5051916;28;20082;-70
2023/02/05 03:48:55;;;;;;;13.02;6.18;;;;;;;7.05;100.00;103306.03;5049900;28;20457;-69
2023/02/05 03:51:43;;;;;;;14.50;6.07;;;;;;;6.95;100.00;103300.94;5051509;28;20420;-71
2023/02/05 03:54:11;;;;;;;13.15;7.10;;;;;;;7.01;100.00;103309.25;5049600;28;20039;-70
2023/02/05 03:56:43;;;;;;;13.82;6.35;;;;;;;7.03;100.00;103312.84;5051423;28;20537;-70
2023/02/05 03:59:10;;;;;;;15.30;6.10;;;;;;;7.04;100.00;103312.06;5052867;28;20043;-70
2023/02/05 04:01:36;;;;;;;11.80;5.88;;;;;;;6.93;100.00;103318.22;5051119;28;20078;-69
2023/02/05 04:04:02;;;;;;;9.65;5.20;;;;;;;6.97;100.00;103316.75;5050628;28;20033;-69
2023/02/05 04:06:27;;;;;;;14.27;5.65;;;;;;;6.99;100.00;103326.53;5043140;28;20041;-70
2023/02/05 04:08:52;;;;;;;9.52;5.80;;;;;;;7.03;100.00;103322.44;5052502;28;20456;-69
2023/02/05 04:11:18;;;;;;;7.15;4.97;;;;;;;7.03;100.00;103328.56;5050276;28;20055;-69
2023/02/05 04:13:43;;;;;;;7.55;5.15;;;;;;;7.00;100.00;103335.28;5049329;28;20416;-69
2023/02/05 04:16:08;;;;;;;9.80;4.97;;;;;;;6.92;100.00;103330.41;5049786;28;20032;-70
2023/02/05 04:18:34;;;;;;;8.43;4.60;;;;;;;6.89;100.00;103324.97;5050532;28;20029;-70
2023/02/05 04:21:00;;;;;;;7.55;3.65;;;;;;;6.85;100.00;103332.47;5050459;28;20036;-71
2023/02/05 04:23:26;;;;;;;9.40;4.28;;;;;;;6.91;100.00;103341.66;5050075;28;20044;-71
2023/02/05 04:25:53;;;;;;;6.75;3.65;;;;;;;6.93;100.00;103339.16;5049588;28;20021;-70
2023/02/05 04:28:18;;;;;;;7.78;2.97;;;;;;;6.92;100.00;103335.66;5051968;28;20029;-69
2023/02/05 04:30:43;;;;;;;5.93;1.45;;;;;;;6.81;100.00;103339.22;5050253;28;20028;-70
2023/02/05 04:33:09;;;;;;;8.73;2.10;;;;;;;6.83;100.00;103345.44;5050273;28;20035;-70
2023/02/05 04:35:34;;;;;;;12.25;2.47;;;;;;;6.71;100.00;103350.69;5051198;28;20021;-70
2023/02/05 04:37:59;;;;;;;7.25;1.40;;;;;;;6.73;100.00;103351.72;5051935;28;20040;-70
2023/02/05 04:40:25;;;;;;;7.65;1.75;;;;;;;6.64;100.00;103353.66;5051585;28;20036;-70
2023/02/05 04:42:50;;;;;;;10.23;2.10;;;;;;;6.73;100.00;103361.31;5051387;28;20032;-70
2023/02/05 04:45:15;;;;;;;6.18;1.45;;;;;;;6.73;100.00;103369.16;5048512;28;20032;-70
2023/02/05 04:47:41;;;;;;;7.97;1.40;;;;;;;6.63;100.00;103371.88;5051285;28;20098;-71
2023/02/05 04:50:06;;;;;;;8.13;1.55;;;;;;;6.65;100.00;103375.53;5048928;28;20036;-71
2023/02/05 04:52:32;;;;;;;14.40;1.98;;;;;;;6.63;100.00;103383.25;5049630;28;20446;-70
2023/02/05 04:54:57;;;;;;;30.88;2.53;;;;;;;6.59;100.00;103381.19;5050817;28;20389;-70
2023/02/05 04:57:23;;;;;;;22.00;1.88;;;;;;;6.56;100.00;103397.56;5052031;28;20173;-69
2023/02/05 04:59:49;;;;;;;17.65;3.03;;;;;;;6.61;100.00;103397.94;5052148;28;20079;-70
2023/02/05 05:02:14;;;;;;;24.15;1.73;;;;;;;6.54;100.00;103404.41;5049071;28;20499;-69
2023/02/05 05:04:39;;;;;;;14.90;1.52;;;;;;;6.45;100.00;103419.41;5050180;28;20025;-70
2023/02/05 05:07:05;;;;;;;12.75;1.83;;;;;;;6.41;100.00;103413.03;5050253;28;20083;-70
2023/02/05 05:09:30;;;;;;;17.10;1.67;;;;;;;6.30;100.00;103413.94;5050807;28;20112;-70
2023/02/05 05:11:55;;;;;;;21.42;2.00;;;;;;;6.36;100.00;103419.66;5050357;28;20037;-70
2023/02/05 05:14:22;;;;;;;19.90;2.13;;;;;;;6.40;100.00;103432.16;5051192;28;20082;-70
2023/02/05 05:16:49;;;;;;;17.77;2.35;;;;;;;6.34;100.00;103436.00;5051709;28;20028;-71
2023/02/05 05:19:14;;;;;;;29.17;2.55;;;;;;;6.30;100.00;103447.03;5052031;28;20025;-69
2023/02/05 05:21:40;;;;;;;15.68;1.30;;;;;;;6.17;100.00;103447.78;5051572;28;20559;-71
2023/02/05 05:24:05;;;;;;;17.48;1.60;;;;;;;6.19;100.00;103441.00;5051536;28;20033;-68
2023/02/05 05:26:30;;;;;;;25.60;2.25;;;;;;;6.19;100.00;103451.44;5051636;28;20025;-69
2023/02/05 05:28:56;;;;;;;14.25;2.03;;;;;;;6.12;100.00;103449.13;5050570;28;20024;-69
2023/02/05 05:31:23;;;;;;;16.05;1.60;;;;;;;5.97;100.00;103447.13;5050819;28;20052;-70
2023/02/05 05:33:48;;;;;;;7.25;1.25;;;;;;;5.95;100.00;103450.44;5051416;28;20392;-69
2023/02/05 05:36:14;;;;;;;12.98;1.65;;;;;;;5.86;100.00;103441.09;5051915;28;20029;-70
2023/02/05 05:38:40;;;;;;;11.77;1.25;;;;;;;5.80;100.00;103458.88;5050087;28;20021;-70
2023/02/05 05:43:53;;;;;;;11.10;1.30;;;;;;;5.86;100.00;103455.81;5051589;28;20048;-69
2023/02/05 05:46:22;;;;;;;15.43;1.50;;;;;;;5.93;100.00;103450.31;5050803;28;20160;-68
2023/02/05 05:48:53;;;;;;;8.57;1.50;;;;;;;5.97;100.00;103454.97;5051681;28;20086;-70
2023/02/05 05:51:19;;;;;;;18.52;1.92;;;;;;;5.91;100.00;103465.88;5052067;28;20516;-68
2023/02/05 05:53:45;;;;;;;16.00;2.38;;;;;;;5.98;100.00;103462.06;5050804;28;20341;-70
2023/02/05 05:56:11;;;;;;;12.10;1.13;;;;;;;6.00;100.00;103464.81;5047829;28;20353;-70
2023/02/05 05:58:36;;;;;;;11.95;2.20;;;;;;;6.00;100.00;103468.31;5046666;28;20024;-70
2023/02/05 06:01:02;;;;;;;18.92;2.25;;;;;;;6.06;100.00;103455.72;5051629;28;20351;-71
2023/02/05 06:03:28;;;;;;;20.90;1.77;;;;;;;6.06;100.00;103471.41;5052316;28;20052;-70
2023/02/05 06:05:53;;;;;;;15.18;1.40;;;;;;;6.07;100.00;103475.81;5053163;28;20068;-70
2023/02/05 06:08:18;;;;;;;17.13;2.80;;;;;;;6.06;100.00;103466.19;5057550;28;20049;-70
2023/02/05 06:10:43;;;;;;;17.20;1.88;;;;;;;6.08;100.00;103469.81;5055041;28;20075;-69
2023/02/05 06:13:09;;;;;;;17.63;2.10;;;;;;;6.16;100.00;103479.94;5055097;28;20021;-70
2023/02/05 06:15:35;;;;;;;15.85;2.35;;;;;;;6.08;100.00;103485.50;5053659;28;20025;-69
2023/02/05 06:18:00;;;;;;;14.95;1.83;;;;;;;6.05;100.00;103495.72;5053447;28;20021;-69
2023/02/05 06:20:26;;;;;;;13.50;2.85;;;;;;;6.02;100.00;103494.56;5054672;28;20079;-69
2023/02/05 06:22:51;;;;;;;18.98;1.80;;;;;;;5.97;100.00;103496.81;5054779;28;20033;-69
2023/02/05 06:25:16;;;;;;;23.05;1.92;;;;;;;6.10;100.00;103498.69;5052679;28;20025;-69
2023/02/05 06:27:42;;;;;;;17.35;1.83;;;;;;;6.08;100.00;103508.13;5053776;28;20025;-69
2023/02/05 06:30:09;;;;;;;13.23;3.40;;;;;;;6.04;100.00;103508.69;5054171;28;20033;-69
2023/02/05 06:32:34;;;;;;;16.10;1.40;;;;;;;6.13;100.00;103519.88;5052134;28;20033;-69
2023/02/05 06:34:59;;;;;;;20.52;2.63;;;;;;;6.10;100.00;103508.25;5054672;28;20104;-70
2023/02/05 06:37:27;;;;;;;11.68;1.20;;;;;;;6.10;100.00;103526.53;5052894;28;20048;-70
2023/02/05 06:39:52;;;;;;;17.38;2.75;;;;;;;6.11;100.00;103538.84;5055560;28;20465;-70
2023/02/05 06:42:18;;;;;;;20.17;2.58;;;;;;;6.08;100.00;103540.41;5056053;28;20031;-70
2023/02/05 06:44:43;;;;;;;14.48;2.30;;;;;;;6.19;100.00;103550.78;5052699;28;20029;-68
2023/02/05 06:47:09;;;;;;;13.43;2.03;;;;;;;6.13;100.00;103550.31;5051866;28;20017;-69
2023/02/05 06:49:34;;;;;;;17.42;2.88;;;;;;;6.12;100.00;103554.63;5068751;28;20480;-69
2023/02/05 06:51:59;;;;;;;13.70;2.42;;;;;;;6.10;100.00;103557.91;5052980;28;20093;-70
2023/02/05 06:54:25;;;;;;;23.02;1.98;;;;;;;6.14;100.00;103559.97;5053499;28;20372;-68
2023/02/05 06:56:50;;;;;;;19.77;2.33;;;;;;;6.21;100.00;103559.66;5053705;28;20028;-70
2023/02/05 06:59:15;;;;;;;22.08;2.28;;;;;;;6.21;100.00;103567.50;5053222;28;20041;-69
2023/02/05 07:01:41;;;;;;;19.08;3.08;;;;;;;6.24;100.00;103566.03;5053632;28;20021;-70
2023/02/05 07:04:06;;;;;;;23.10;2.17;;;;;;;6.29;100.00;103579.47;5053475;28;20444;-70
2023/02/05 07:06:32;;;;;;;24.42;2.50;;;;;;;6.28;100.00;103588.13;5052444;28;20025;-69
2023/02/05 07:08:58;;;;;;;18.65;2.42;;;;;;;6.27;100.00;103596.75;5053543;28;20071;-69
2023/02/05 07:11:24;;;;;;;20.25;2.30;;;;;;;6.27;100.00;103602.00;5051818;28;20035;-69
2023/02/05 07:13:50;;;;;;;20.70;2.00;;;;;;;6.30;100.00;103606.56;5053514;28;20036;-68
2023/02/05 07:16:15;;;;;;;24.45;2.15;;;;;;;6.18;100.00;103612.59;5053640;28;20037;-70
2023/02/05 07:18:41;;;;;;;14.60;1.73;;;;;;;6.21;100.00;103619.78;5053784;28;20024;-68
2023/02/05 07:21:08;;;;;;;17.85;2.17;;;;;;;6.23;100.00;103615.59;5048618;28;20718;-69
2023/02/05 07:23:34;;;;;;;18.90;2.78;;;;;;;6.32;100.00;103625.88;5052109;28;20020;-68
2023/02/05 07:26:12;;;;;;;22.63;2.53;;;;;;;6.31;100.00;103624.97;5056482;28;20055;-70
2023/02/05 07:28:37;;;;;;;21.08;2.08;;;;;;;6.31;100.00;103630.19;5053407;28;20025;-69
2023/02/05 07:31:05;;;;;;;21.55;2.40;;;;;;;6.32;100.00;103632.03;5052652;28;20353;-70
2023/02/05 07:33:31;;;;;;;22.08;2.85;;;;;;;6.27;100.00;103659.50;5053137;28;20032;-69
2023/02/05 07:35:56;;;;;;;18.85;2.60;;;;;;;6.35;100.00;103655.81;5056199;28;20077;-69
2023/02/05 07:38:23;;;;;;;18.00;2.00;;;;;;;6.39;100.00;103647.41;5049957;28;20103;-69
2023/02/05 07:40:50;;;;;;;16.48;2.10;;;;;;;6.29;100.00;103652.69;5043776;28;20030;-68
2023/02/05 07:43:16;;;;;;;19.83;3.30;;;;;;;6.38;100.00;103647.28;5048493;28;20036;-68
2023/02/05 07:45:41;;;;;;;27.70;3.00;;;;;;;6.44;100.00;103652.97;5044061;28;20025;-69
2023/02/05 07:48:06;;;;;;;16.25;2.10;;;;;;;6.39;100.00;103655.25;5047949;28;20518;-68
2023/02/05 07:50:32;;;;;;;24.30;2.67;;;;;;;6.31;100.00;103663.25;5052139;28;20100;-68
2023/02/05 07:52:57;;;;;;;15.73;2.28;;;;;;;6.26;100.00;103649.84;5047735;28;20033;-69
2023/02/05 07:55:22;;;;;;;16.77;2.47;;;;;;;6.44;100.00;103654.69;5048486;28;20048;-69
2023/02/05 07:57:48;;;;;;;18.13;2.20;;;;;;;6.48;100.00;103662.91;5047330;28;20021;-68
2023/02/05 08:00:13;;;;;;;23.25;2.42;;;;;;;6.56;100.00;103664.41;5048366;28;20102;-69
2023/02/05 08:02:39;;;;;;;20.85;2.72;;;;;;;6.62;100.00;103656.16;5052815;28;20028;-69
2023/02/05 08:05:05;;;;;;;27.65;3.42;;;;;;;6.70;100.00;103661.97;5048654;28;20020;-68
2023/02/05 08:07:30;;;;;;;24.08;2.67;;;;;;;6.63;100.00;103662.28;5041424;28;20045;-69
2023/02/05 08:09:56;;;;;;;26.73;3.60;;;;;;;6.68;100.00;103671.41;5048802;28;20389;-69
2023/02/05 08:12:21;;;;;;;24.67;3.60;;;;;;;6.63;100.00;103668.44;5050697;28;20033;-69
2023/02/05 08:14:46;;;;;;;19.17;3.20;;;;;;;6.69;100.00;103666.31;5052946;28;20460;-69
2023/02/05 08:17:12;;;;;;;33.47;4.28;;;;;;;6.69;100.00;103689.84;5050866;28;20090;-68
2023/02/05 08:19:37;;;;;;;21.90;4.05;;;;;;;6.67;100.00;103680.94;5052251;28;20031;-69
2023/02/05 08:22:02;;;;;;;24.60;4.15;;;;;;;6.69;100.00;103692.47;5051813;28;20051;-68
2023/02/05 08:24:29;;;;;;;31.85;3.40;;;;;;;6.64;100.00;103688.56;5052137;28;20507;-68
2023/02/05 08:26:55;;;;;;;32.33;3.03;;;;;;;6.80;100.00;103685.47;5052498;28;20373;-68
2023/02/05 08:29:20;;;;;;;33.90;3.70;;;;;;;6.77;100.00;103686.91;5052322;28;20025;-69
2023/02/05 08:31:46;;;;;;;26.27;4.13;;;;;;;6.79;100.00;103695.81;5051819;28;20032;-68
2023/02/05 08:34:11;;;;;;;33.88;3.70;;;;;;;6.84;100.00;103702.31;5052268;28;20082;-69
2023/02/05 08:36:36;;;;;;;31.95;4.05;;;;;;;6.81;100.00;103700.38;5052033;28;20472;-69
2023/02/05 08:39:02;;;;;;;36.60;4.60;;;;;;;6.88;100.00;103709.63;5052296;28;20036;-69
2023/02/05 08:41:27;;;;;;;19.20;3.10;;;;;;;7.00;100.00;103715.81;5050400;28;20025;-69
2023/02/05 08:43:52;;;;;;;32.28;4.03;;;;;;;6.91;100.00;103709.84;5051481;28;20033;-69
2023/02/05 08:46:23;;;;;;;30.77;4.97;;;;;;;7.00;100.00;103713.19;5051870;28;20549;-68
2023/02/05 08:48:49;;;;;;;27.02;3.67;;;;;;;7.03;100.00;103725.63;5051370;28;20031;-70
2023/02/05 08:51:15;;;;;;;28.05;4.18;;;;;;;6.98;100.00;103717.38;5051602;28;20476;-69
2023/02/05 08:53:40;;;;;;;24.45;4.05;;;;;;;7.09;100.00;103729.63;5051460;28;20467;-69
2023/02/05 08:56:09;;;;;;;25.55;3.00;;;;;;;6.96;100.00;103741.59;5050290;28;20029;-68
2023/02/05 08:58:35;;;;;;;26.75;3.58;;;;;;;6.90;100.00;103736.81;5052803;28;20029;-70
2023/02/05 09:01:12;;;;;;;30.75;4.20;;;;;;;7.06;100.00;103749.41;5051251;28;20028;-70
2023/02/05 09:03:37;;;;;;;39.00;5.45;;;;;;;7.17;100.00;103758.09;5048539;28;20025;-69
2023/02/05 09:06:09;;;;;;;31.17;4.80;;;;;;;7.13;100.00;103758.66;5051467;28;20035;-68
2023/02/05 09:08:35;;;;;;;34.95;3.70;;;;;;;7.14;100.00;103755.25;5050042;28;20385;-68
2023/02/05 09:11:00;;;;;;;32.05;3.88;;;;;;;7.19;100.00;103764.34;5050209;28;20040;-69
2023/02/05 09:13:25;;;;;;;27.27;4.25;;;;;;;7.18;100.00;103765.16;5051481;28;20464;-69
2023/02/05 09:15:51;;;;;;;31.05;3.63;;;;;;;7.22;100.00;103760.28;5052319;28;20457;-69
2023/02/05 09:18:16;;;;;;;31.98;3.80;;;;;;;7.31;100.00;103754.84;5051882;28;20060;-70
2023/02/05 09:20:44;;;;;;;22.77;2.83;;;;;;;7.26;100.00;103749.22;5052065;28;20052;-69
2023/02/05 09:23:11;;;;;;;31.42;3.58;;;;;;;7.31;100.00;103740.81;5050452;28;20084;-69
2023/02/05 09:25:38;;;;;;;33.47;4.05;;;;;;;7.32;100.00;103729.56;5050731;28;20116;-68
2023/02/05 09:28:06;;;;;;;35.63;3.38;;;;;;;7.35;100.00;103741.19;5050231;28;20473;-69
2023/02/05 09:30:32;;;;;;;33.38;4.50;;;;;;;7.37;100.00;103726.47;5049236;28;20032;-71
2023/02/05 09:32:57;;;;;;;24.75;3.83;;;;;;;7.37;100.00;103722.97;5051852;28;20025;-69
2023/02/05 09:35:23;;;;;;;24.45;4.30;;;;;;;7.42;100.00;103716.38;5054809;28;20465;-70
2023/02/05 09:37:48;;;;;;;28.33;4.47;;;;;;;7.42;100.00;103742.56;5055235;28;20481;-68
2023/02/05 09:40:23;;;;;;;27.00;3.60;;;;;;;7.50;100.00;103733.59;5053189;28;20062;-68
2023/02/05 09:43:02;;;;;;;36.30;4.70;;;;;;;7.46;100.00;103741.06;5053611;28;20427;-68
2023/02/05 09:45:27;;;;;;;24.45;3.78;;;;;;;7.64;100.00;103729.38;5054068;28;20031;-68
2023/02/05 09:48:25;;;;;;;35.50;5.28;;;;;;;7.76;100.00;103692.69;5055023;28;20017;-69
2023/02/05 09:50:51;;;;;;;36.20;5.55;;;;;;;8.08;100.00;103718.66;5040304;28;20045;-69
2023/02/05 09:53:20;;;;;;;27.70;4.38;;;;;;;8.38;100.00;103740.06;5056037;28;20040;-69
2023/02/05 09:55:46;;;;;;;29.95;4.28;;;;;;;8.70;100.00;103744.09;5053080;28;20025;-70
2023/02/05 09:58:26;;;;;;;22.25;3.92;;;;;;;8.94;100.00;103757.16;5056031;28;20028;-68
2023/02/05 10:01:11;;;;;;;25.35;3.78;;;;;;;8.87;100.00;103765.38;5071640;28;20035;-69
2023/02/05 10:03:43;;;;;;;25.55;4.22;;;;;;;8.71;100.00;103764.31;5056321;28;20032;-69
2023/02/05 10:06:08;;;;;;;30.48;4.10;;;;;;;8.53;100.00;103760.34;5058479;28;20506;-70
2023/02/05 10:08:56;;;;;;;30.63;3.50;;;;;;;8.68;100.00;103777.22;5053600;28;20041;-68
2023/02/05 10:11:45;;;;;;;22.55;3.92;;;;;;;8.58;100.00;103778.25;5059514;28;20035;-69
2023/02/05 10:14:10;;;;;;;19.73;3.28;;;;;;;8.43;100.00;103757.03;5059907;28;20063;-68
2023/02/05 10:16:56;;;;;;;34.28;4.32;;;;;;;8.50;100.00;103763.66;5062988;28;20056;-69
2023/02/05 10:19:37;;;;;;;26.77;4.47;;;;;;;8.43;100.00;103753.50;5050907;28;20036;-69
2023/02/05 10:22:18;;;;;;;27.52;4.20;;;;;;;8.33;100.00;103751.00;5061268;28;20055;-70
2023/02/05 10:25:13;;;;;;;24.67;4.25;;;;;;;8.25;100.00;103764.47;5068507;28;20063;-69
2023/02/05 10:27:51;;;;;;;27.48;3.65;;;;;;;8.12;100.00;103755.59;5057664;28;20036;-70
2023/02/05 10:30:44;;;;;;;40.15;4.85;;;;;;;8.01;100.00;103763.56;5065016;28;20127;-70
2023/02/05 10:33:39;;;;;;;33.08;4.97;;;;;;;7.97;100.00;103758.91;5054088;28;20051;-68
2023/02/05 10:36:08;;;;;;;22.33;4.13;;;;;;;7.83;100.00;103747.41;5054259;28;20442;-69
2023/02/05 10:38:38;;;;;;;30.90;4.82;;;;;;;7.81;100.00;103779.53;5054795;28;20075;-69
2023/02/05 10:41:11;;;;;;;39.30;4.95;;;;;;;7.82;100.00;103773.50;5067916;28;20025;-68
2023/02/05 10:43:47;;;;;;;26.63;2.92;;;;;;;7.78;100.00;103766.19;5056836;28;20083;-69
2023/02/05 10:46:14;;;;;;;32.25;4.43;;;;;;;7.87;100.00;103780.00;5062227;28;20031;-70
2023/02/05 10:48:57;;;;;;;27.48;3.65;;;;;;;7.93;100.00;103769.97;5055351;28;20024;-70
2023/02/05 10:51:22;;;;;;;27.27;3.55;;;;;;;7.86;100.00;103770.31;5053735;28;20020;-69
2023/02/05 10:53:48;;;;;;;34.35;3.90;;;;;;;7.96;100.00;103783.28;5054971;28;20418;-69
2023/02/05 10:56:17;;;;;;;23.10;4.38;;;;;;;8.49;100.00;103784.56;5065689;28;20029;-71
2023/02/05 10:58:50;;;;;;;31.98;3.70;;;;;;;8.76;100.00;103776.06;5055222;28;20036;-69
2023/02/05 11:01:17;;;;;;;;;;;;;;;9.06;100.00;103780.72;5053872;28;20423;-68
2023/02/05 11:04:04;;;;;;;26.00;3.33;;;;;;;8.90;100.00;103770.88;5052422;28;20367;-69
2023/02/05 11:06:42;;;;;;;21.77;3.30;;;;;;;9.02;100.00;103776.06;5052933;28;20108;-69
2023/02/05 11:09:23;;;;;;;25.40;3.97;;;;;;;8.96;100.00;103768.66;5053087;28;20508;-69
2023/02/05 11:11:51;;;;;;;26.27;4.00;;;;;;;8.68;100.00;103782.47;5052519;28;20033;-69
2023/02/05 11:14:42;;;;;;;22.17;3.38;;;;;;;8.63;100.00;103778.59;5051417;28;20045;-69
2023/02/05 11:17:13;;;;;;;24.77;3.17;;;;;;;8.60;100.00;103765.25;5052580;28;20071;-70
2023/02/05 11:19:39;;;;;;;29.55;4.00;;;;;;;8.55;100.00;103762.28;5049028;28;20025;-69
2023/02/05 11:22:04;;;;;;;36.70;3.97;;;;;;;8.81;100.00;103760.63;5059872;28;20033;-68
2023/02/05 11:24:38;;;;;;;28.50;3.63;;;;;;;9.20;100.00;103753.72;5066526;28;20417;-68
2023/02/05 11:27:15;;;;;;;30.42;4.13;;;;;;;9.71;100.00;103740.47;5048918;28;20404;-69
2023/02/05 11:29:41;;;;;;;26.55;4.30;;;;;;;9.82;100.00;103752.63;5050411;28;20033;-69